Time;durP1;ratioP1;P1;durP2;ratioP2;P2;SDS_P1;SDS_P2;PMS_P1;PMS_P2;Temp;Humidity;BMP_temperature;BMP_pressure;BME280_temperature;BME280_humidity;BME280_pressure;Samples;Min_cycle;Max_cycle;Signal;HPM_P1;HPM_P2
2023/01/23 00:02:11;;;;;;;41.83;25.92;;;1.60;99.90;;;;;;5082623;28;20426;-64
2023/01/23 00:04:37;;;;;;;39.00;24.25;;;1.60;99.90;;;;;;5080862;28;20412;-64
2023/01/23 00:07:04;;;;;;;37.70;23.50;;;1.60;99.90;;;;;;5081618;28;20835;-65
2023/01/23 00:09:31;;;;;;;39.70;23.75;;;1.60;99.90;;;;;;5083046;28;20467;-66
2023/01/23 00:11:58;;;;;;;37.85;24.10;;;1.60;99.90;;;;;;5080765;28;20503;-65
2023/01/23 00:14:26;;;;;;;37.40;23.20;;;1.60;99.90;;;;;;5079485;28;20891;-66
2023/01/23 00:16:53;;;;;;;36.22;22.98;;;1.60;99.90;;;;;;5079183;28;20406;-66
2023/01/23 00:19:20;;;;;;;34.07;21.23;;;1.60;99.90;;;;;;5079007;28;20894;-64
2023/01/23 00:21:47;;;;;;;33.42;21.77;;;1.60;99.90;;;;;;5077349;28;20506;-65
2023/01/23 00:24:13;;;;;;;33.45;21.95;;;1.60;99.90;;;;;;5079373;28;20873;-64
2023/01/23 00:26:40;;;;;;;33.78;21.80;;;1.60;99.90;;;;;;5081153;28;20455;-65
2023/01/23 00:29:07;;;;;;;35.20;22.77;;;1.60;99.90;;;;;;5078686;28;20461;-64
2023/01/23 00:31:37;;;;;;;35.63;22.20;;;1.60;99.90;;;;;;5081455;28;20503;-65
2023/01/23 00:34:06;;;;;;;35.28;22.25;;;1.60;99.90;;;;;;5079768;28;20522;-66
2023/01/23 00:36:35;;;;;;;29.70;19.70;;;1.60;99.90;;;;;;5081061;28;20406;-65
2023/01/23 00:39:02;;;;;;;31.38;20.95;;;1.70;99.90;;;;;;5082545;28;20410;-65
2023/01/23 00:41:29;;;;;;;30.95;21.48;;;1.70;99.90;;;;;;5081047;28;20412;-66
2023/01/23 00:43:55;;;;;;;33.28;22.52;;;1.70;99.90;;;;;;5078645;28;20419;-66
2023/01/23 00:46:23;;;;;;;35.72;22.23;;;1.60;99.90;;;;;;5076673;28;20416;-65
2023/01/23 00:48:51;;;;;;;34.67;21.88;;;1.60;99.90;;;;;;5078125;28;20411;-66
2023/01/23 00:51:18;;;;;;;32.00;21.00;;;1.60;99.90;;;;;;5077323;28;20852;-64
2023/01/23 00:53:45;;;;;;;31.67;19.70;;;1.60;99.90;;;;;;5081341;28;20412;-63
2023/01/23 00:56:12;;;;;;;30.02;20.58;;;1.80;99.90;;;;;;5078336;28;20415;-65
2023/01/23 00:58:40;;;;;;;31.77;21.27;;;1.70;99.90;;;;;;5082378;28;20753;-65
2023/01/23 01:01:07;;;;;;;33.80;21.95;;;1.80;99.90;;;;;;5086314;28;20418;-65
2023/01/23 01:03:35;;;;;;;30.30;21.08;;;1.90;99.90;;;;;;5075408;28;20817;-65
2023/01/23 01:06:03;;;;;;;30.88;21.17;;;2.00;99.90;;;;;;5078843;28;20819;-66
2023/01/23 01:08:30;;;;;;;32.63;20.73;;;1.90;99.90;;;;;;5078726;28;20467;-66
2023/01/23 01:10:57;;;;;;;32.13;21.58;;;1.90;99.90;;;;;;5080163;28;20415;-65
2023/01/23 01:13:24;;;;;;;32.58;21.20;;;1.80;99.90;;;;;;5079283;28;20461;-66
2023/01/23 01:15:52;;;;;;;31.02;20.63;;;1.70;99.90;;;;;;5078946;28;20832;-65
2023/01/23 01:18:19;;;;;;;34.08;21.52;;;1.70;99.90;;;;;;5075988;28;20411;-65
2023/01/23 01:20:46;;;;;;;29.95;19.83;;;1.70;99.90;;;;;;5079069;28;20413;-65
2023/01/23 01:23:14;;;;;;;33.58;22.27;;;1.60;99.90;;;;;;5077879;28;20488;-66
2023/01/23 01:25:41;;;;;;;29.23;20.00;;;1.60;99.90;;;;;;5076377;28;20418;-64
2023/01/23 01:28:08;;;;;;;31.10;20.25;;;1.60;99.90;;;;;;5077406;28;20410;-65
2023/01/23 01:30:36;;;;;;;29.77;19.95;;;1.60;99.90;;;;;;5079070;28;20413;-65
2023/01/23 01:33:03;;;;;;;33.97;20.65;;;1.60;99.90;;;;;;5076058;28;20490;-65
2023/01/23 01:35:29;;;;;;;31.80;19.27;;;1.50;99.90;;;;;;5079896;28;20422;-63
2023/01/23 01:37:56;;;;;;;30.92;19.40;;;1.50;99.90;;;;;;5081172;28;20414;-65
2023/01/23 01:40:29;;;;;;;33.38;20.48;;;1.50;99.90;;;;;;5080035;28;20416;-65
2023/01/23 01:42:59;;;;;;;29.70;19.83;;;1.50;99.90;;;;;;5078863;28;20424;-63
2023/01/23 01:46:04;;;;;;;29.83;18.85;;;1.60;99.90;;;;;;5082600;28;20809;-64
2023/01/23 01:48:35;;;;;;;29.80;19.67;;;1.50;99.90;;;;;;5077707;28;20527;-65
2023/01/23 01:51:08;;;;;;;29.27;18.88;;;1.60;99.90;;;;;;5076255;28;20808;-63
2023/01/23 01:53:36;;;;;;;28.52;18.27;;;1.50;99.90;;;;;;5077633;28;20406;-65
2023/01/23 01:56:06;;;;;;;28.73;19.03;;;1.40;99.90;;;;;;5075889;28;20408;-65
2023/01/23 01:58:33;;;;;;;28.73;19.05;;;1.50;99.90;;;;;;5078332;28;20811;-65
2023/01/23 02:01:00;;;;;;;27.98;18.45;;;1.50;99.90;;;;;;5077409;28;20415;-65
2023/01/23 02:03:27;;;;;;;28.80;18.80;;;1.50;99.90;;;;;;5080596;28;20479;-65
2023/01/23 02:05:53;;;;;;;28.67;19.40;;;1.60;99.90;;;;;;5080591;28;20453;-65
2023/01/23 02:08:24;;;;;;;28.95;18.92;;;1.60;99.90;;;;;;5078695;28;20899;-63
2023/01/23 02:10:51;;;;;;;28.50;19.35;;;1.50;99.90;;;;;;5079288;28;20415;-64
2023/01/23 02:13:24;;;;;;;28.83;19.05;;;1.60;99.90;;;;;;5081189;28;20418;-65
2023/01/23 02:15:52;;;;;;;27.30;17.88;;;1.60;99.90;;;;;;5079184;28;20418;-65
2023/01/23 02:18:21;;;;;;;26.25;18.15;;;1.70;99.90;;;;;;5076182;28;20419;-64
2023/01/23 02:20:50;;;;;;;27.53;17.73;;;1.80;99.90;;;;;;5076816;28;20442;-65
2023/01/23 02:23:26;;;;;;;27.90;18.40;;;1.90;99.90;;;;;;5075720;28;20428;-65
2023/01/23 02:26:00;;;;;;;27.58;18.30;;;1.80;99.90;;;;;;5076000;28;20473;-61
2023/01/23 02:28:37;;;;;;;29.75;19.05;;;1.90;99.90;;;;;;5076333;28;20399;-65
2023/01/23 02:31:04;;;;;;;29.85;19.10;;;1.80;99.90;;;;;;5075730;28;20439;-66
2023/01/23 02:33:47;;;;;;;31.60;20.38;;;1.80;99.90;;;;;;5079340;28;20469;-64
2023/01/23 02:36:14;;;;;;;31.98;20.52;;;1.70;99.90;;;;;;5078153;28;20413;-65
2023/01/23 02:38:51;;;;;;;33.03;20.75;;;1.60;99.90;;;;;;5077872;28;20437;-64
2023/01/23 02:41:24;;;;;;;34.08;21.27;;;1.50;99.90;;;;;;5083110;28;20414;-64
2023/01/23 02:43:53;;;;;;;37.45;22.02;;;1.50;99.90;;;;;;5079465;28;20426;-63
2023/01/23 02:46:20;;;;;;;35.13;21.33;;;1.50;99.90;;;;;;5078494;28;20941;-65
2023/01/23 02:48:47;;;;;;;36.65;21.88;;;1.50;99.90;;;;;;5081446;28;20497;-65
2023/01/23 02:51:15;;;;;;;38.05;22.50;;;1.50;99.90;;;;;;5081763;28;20417;-65
2023/01/23 02:53:42;;;;;;;35.20;22.50;;;1.50;99.90;;;;;;5081642;28;20414;-64
2023/01/23 02:56:09;;;;;;;38.55;23.17;;;1.50;99.90;;;;;;5081676;28;20414;-65
2023/01/23 03:01:21;;;;;;;38.30;23.27;;;1.50;99.90;;;;;;5081899;28;20979;-65
2023/01/23 03:03:50;;;;;;;39.25;22.92;;;1.50;99.90;;;;;;5079267;28;20481;-65
2023/01/23 03:06:17;;;;;;;42.38;25.13;;;1.50;99.90;;;;;;5081753;28;20502;-65
2023/01/23 03:08:48;;;;;;;43.00;24.23;;;1.60;99.90;;;;;;5083348;28;20485;-64
2023/01/23 03:11:16;;;;;;;44.50;24.98;;;1.50;99.90;;;;;;5084037;28;20507;-65
2023/01/23 03:13:44;;;;;;;44.88;25.85;;;1.60;99.90;;;;;;5082164;28;20419;-64
2023/01/23 03:16:11;;;;;;;41.95;25.50;;;1.50;99.90;;;;;;5078624;28;20416;-64
2023/01/23 03:18:37;;;;;;;44.47;25.35;;;1.50;99.90;;;;;;5075170;28;20411;-65
2023/01/23 03:21:05;;;;;;;44.08;25.92;;;1.50;99.90;;;;;;5079767;28;20900;-63
2023/01/23 03:23:32;;;;;;;41.42;23.60;;;1.50;99.90;;;;;;5080994;28;20417;-63
2023/01/23 03:25:59;;;;;;;38.50;22.83;;;1.70;99.90;;;;;;5080018;28;20897;-65
2023/01/23 03:31:12;;;;;;;39.17;23.05;;;1.80;99.90;;;;;;5081223;28;20399;-64
2023/01/23 03:33:42;;;;;;;40.22;24.02;;;1.80;99.90;;;;;;5082684;28;20409;-66
2023/01/23 03:36:09;;;;;;;39.63;24.03;;;1.80;99.90;;;;;;5083289;28;20454;-64
2023/01/23 03:38:36;;;;;;;41.00;25.03;;;1.80;99.90;;;;;;5081621;28;20422;-65
2023/01/23 03:43:47;;;;;;;38.47;23.67;;;1.70;99.90;;;;;;5080896;28;20461;-64
2023/01/23 03:46:15;;;;;;;40.47;23.67;;;1.70;99.90;;;;;;5078732;28;20472;-64
2023/01/23 03:48:41;;;;;;;42.45;23.92;;;1.70;99.90;;;;;;5079839;28;20836;-65
2023/01/23 03:51:08;;;;;;;38.75;21.85;;;1.70;99.90;;;;;;5077814;28;20407;-65
2023/01/23 03:53:35;;;;;;;43.65;25.23;;;1.70;99.90;;;;;;5080041;28;20406;-64
2023/01/23 03:56:01;;;;;;;39.75;22.38;;;1.60;99.90;;;;;;5080302;28;20766;-65
2023/01/23 03:58:29;;;;;;;41.00;23.98;;;1.50;99.90;;;;;;5080638;28;20839;-66
2023/01/23 04:00:56;;;;;;;38.63;22.38;;;1.50;99.90;;;;;;5081317;28;20407;-65
2023/01/23 04:03:24;;;;;;;37.55;22.52;;;1.60;99.90;;;;;;5082707;28;20490;-65
2023/01/23 04:05:56;;;;;;;35.67;22.42;;;1.60;99.90;;;;;;5081433;28;21055;-65
2023/01/23 04:08:23;;;;;;;38.40;22.40;;;1.70;99.90;;;;;;5080251;28;20498;-65
2023/01/23 04:10:50;;;;;;;40.28;23.83;;;1.70;99.90;;;;;;5082151;28;20478;-65
2023/01/23 04:13:16;;;;;;;34.73;21.03;;;1.60;99.90;;;;;;5082697;28;20417;-65
2023/01/23 04:15:43;;;;;;;38.63;23.63;;;1.60;99.90;;;;;;5074145;28;20490;-64
2023/01/23 04:18:10;;;;;;;38.90;23.05;;;1.50;99.90;;;;;;5078741;28;20415;-66
2023/01/23 04:20:38;;;;;;;36.25;22.67;;;1.50;99.90;;;;;;5085400;28;20799;-65
2023/01/23 04:23:05;;;;;;;36.60;22.80;;;1.70;99.90;;;;;;5079748;28;20402;-65
2023/01/23 04:25:32;;;;;;;37.38;22.17;;;1.70;99.90;;;;;;5080874;28;20410;-65
2023/01/23 04:27:58;;;;;;;37.53;23.03;;;1.60;99.90;;;;;;5076328;28;20418;-65
2023/01/23 04:30:25;;;;;;;33.67;19.95;;;1.70;99.90;;;;;;5081605;28;20786;-65
2023/01/23 04:32:52;;;;;;;39.17;23.10;;;1.70;99.90;;;;;;5082748;28;20478;-64
2023/01/23 04:35:18;;;;;;;37.67;23.25;;;1.60;99.90;;;;;;5081201;28;20408;-66
2023/01/23 04:37:46;;;;;;;40.35;22.55;;;1.60;99.90;;;;;;5079349;28;20411;-65
2023/01/23 04:40:13;;;;;;;36.45;22.77;;;1.60;99.90;;;;;;5081187;28;20406;-65
2023/01/23 04:42:40;;;;;;;36.00;22.35;;;1.70;99.90;;;;;;5082127;28;20406;-65
2023/01/23 04:45:08;;;;;;;34.45;21.50;;;1.60;99.90;;;;;;5074206;28;20459;-65
2023/01/23 04:47:35;;;;;;;34.85;21.60;;;1.70;99.90;;;;;;5078208;28;20442;-65
2023/01/23 04:50:02;;;;;;;31.05;19.80;;;1.70;99.90;;;;;;5076822;28;20895;-64
2023/01/23 04:52:29;;;;;;;33.03;21.00;;;1.70;99.90;;;;;;5078916;28;20414;-65
2023/01/23 04:54:57;;;;;;;30.67;19.73;;;1.70;99.90;;;;;;5079060;28;20931;-65
2023/01/23 04:57:24;;;;;;;30.65;20.10;;;1.70;99.90;;;;;;5075258;28;20417;-64
2023/01/23 04:59:51;;;;;;;32.40;20.10;;;1.70;99.90;;;;;;5080437;28;20423;-65
2023/01/23 05:02:18;;;;;;;32.72;20.83;;;1.60;99.90;;;;;;5081821;28;20463;-65
2023/01/23 05:04:45;;;;;;;33.13;19.80;;;1.60;99.90;;;;;;5078220;28;20835;-64
2023/01/23 05:07:12;;;;;;;29.45;18.45;;;1.70;99.90;;;;;;5081869;28;20459;-66
2023/01/23 05:09:39;;;;;;;31.60;19.23;;;1.60;99.90;;;;;;5074545;28;20415;-64
2023/01/23 05:12:07;;;;;;;28.27;18.85;;;1.60;99.90;;;;;;5078379;28;20419;-65
2023/01/23 05:14:34;;;;;;;29.77;19.10;;;1.60;99.90;;;;;;5078193;28;20415;-65
2023/01/23 05:17:01;;;;;;;29.92;19.50;;;1.80;99.90;;;;;;5078207;28;20418;-63
2023/01/23 05:19:27;;;;;;;28.35;18.00;;;1.80;99.90;;;;;;5079426;28;20406;-65
2023/01/23 05:21:54;;;;;;;29.55;19.05;;;1.80;99.90;;;;;;5076974;28;20910;-64
2023/01/23 05:24:21;;;;;;;30.42;19.55;;;1.60;99.90;;;;;;5077276;28;20431;-64
2023/01/23 05:26:47;;;;;;;31.60;19.83;;;1.70;99.90;;;;;;5079644;28;20413;-64
2023/01/23 05:29:15;;;;;;;29.63;18.08;;;1.60;99.90;;;;;;5080023;28;20411;-65
2023/01/23 05:31:42;;;;;;;31.48;18.50;;;1.70;99.90;;;;;;5078998;28;20411;-65
2023/01/23 05:34:09;;;;;;;32.13;20.27;;;1.60;99.90;;;;;;5081133;28;20406;-66
2023/01/23 05:36:35;;;;;;;32.40;20.00;;;1.60;99.90;;;;;;5080599;28;20414;-65
2023/01/23 05:39:02;;;;;;;29.55;19.05;;;1.60;99.90;;;;;;5079104;28;20404;-64
2023/01/23 05:41:29;;;;;;;31.27;19.92;;;1.60;99.90;;;;;;5080040;28;20893;-65
2023/01/23 05:43:55;;;;;;;30.67;20.10;;;1.60;99.90;;;;;;5081509;28;20927;-63
2023/01/23 05:46:23;;;;;;;32.40;19.60;;;1.60;99.90;;;;;;5078724;28;20971;-65
2023/01/23 05:48:51;;;;;;;31.08;19.05;;;1.60;99.90;;;;;;5079516;28;20472;-65
2023/01/23 05:51:17;;;;;;;32.80;20.25;;;1.60;99.90;;;;;;5081755;28;20475;-65
2023/01/23 05:53:44;;;;;;;33.33;20.25;;;1.60;99.90;;;;;;5080872;28;20821;-65
2023/01/23 05:56:11;;;;;;;30.73;18.57;;;1.60;99.90;;;;;;5078778;28;20533;-65
2023/01/23 05:58:37;;;;;;;30.85;19.75;;;1.60;99.90;;;;;;5081136;28;20421;-65
2023/01/23 06:01:05;;;;;;;30.87;18.67;;;1.50;99.90;;;;;;5080946;28;20421;-65
2023/01/23 06:03:33;;;;;;;29.30;18.38;;;1.60;99.90;;;;;;5078812;28;20829;-65
2023/01/23 06:06:01;;;;;;;28.90;16.93;;;1.60;99.90;;;;;;5082358;28;20464;-63
2023/01/23 06:08:28;;;;;;;28.53;18.47;;;1.60;99.90;;;;;;5078943;28;20447;-63
2023/01/23 06:10:57;;;;;;;30.70;19.02;;;1.60;99.90;;;;;;5080411;28;20405;-63
2023/01/23 06:13:24;;;;;;;31.15;18.95;;;1.60;99.90;;;;;;5081340;28;20410;-62
2023/01/23 06:15:51;;;;;;;28.88;18.10;;;1.60;99.90;;;;;;5082142;28;20484;-63
2023/01/23 06:18:18;;;;;;;31.13;19.95;;;1.60;99.90;;;;;;5081687;28;20415;-63
2023/01/23 06:20:46;;;;;;;32.72;20.35;;;1.70;99.90;;;;;;5084803;28;20470;-63
2023/01/23 06:23:13;;;;;;;33.10;20.40;;;1.60;99.90;;;;;;5081105;28;20405;-63
2023/01/23 06:25:40;;;;;;;32.78;19.77;;;1.60;99.90;;;;;;5080241;28;20843;-63
2023/01/23 06:28:07;;;;;;;32.90;19.60;;;1.60;99.90;;;;;;5078765;28;20951;-62
2023/01/23 06:30:34;;;;;;;32.80;20.00;;;1.60;99.90;;;;;;5081090;28;20886;-62
2023/01/23 06:33:00;;;;;;;32.38;20.35;;;1.60;99.90;;;;;;5082398;28;20419;-62
2023/01/23 06:35:27;;;;;;;33.70;20.27;;;1.60;99.90;;;;;;5080660;28;20431;-62
2023/01/23 06:37:55;;;;;;;29.13;16.55;;;1.60;99.90;;;;;;5080057;28;20426;-62
2023/01/23 06:40:22;;;;;;;30.58;18.42;;;1.60;99.90;;;;;;5083310;28;20411;-62
2023/01/23 06:42:49;;;;;;;30.50;18.20;;;1.60;99.90;;;;;;5084486;28;20465;-62
2023/01/23 06:45:17;;;;;;;30.67;18.77;;;1.70;99.90;;;;;;5077527;28;20427;-63
2023/01/23 06:47:43;;;;;;;31.67;19.45;;;1.70;99.90;;;;;;5083730;28;20513;-63
2023/01/23 06:50:10;;;;;;;30.42;18.38;;;1.80;99.90;;;;;;5081798;28;20412;-63
2023/01/23 06:52:37;;;;;;;31.02;19.80;;;1.80;99.90;;;;;;5083085;28;20413;-63
2023/01/23 06:55:06;;;;;;;32.95;19.38;;;1.80;99.90;;;;;;5084233;28;20781;-62
2023/01/23 06:57:34;;;;;;;34.60;20.50;;;1.80;99.90;;;;;;5082102;28;20494;-64
2023/01/23 07:00:01;;;;;;;34.03;20.65;;;1.80;99.90;;;;;;5081996;28;20495;-63
2023/01/23 07:02:27;;;;;;;35.88;21.10;;;1.70;99.90;;;;;;5083695;28;20923;-62
2023/01/23 07:04:54;;;;;;;36.35;21.40;;;1.70;99.90;;;;;;5083327;28;20960;-63
2023/01/23 07:07:21;;;;;;;36.07;20.33;;;1.80;99.90;;;;;;5078749;28;20510;-63
2023/01/23 07:09:47;;;;;;;39.38;22.50;;;1.80;99.90;;;;;;5080197;28;20436;-64
2023/01/23 07:12:15;;;;;;;38.43;21.73;;;1.70;99.90;;;;;;5080565;28;20489;-62
2023/01/23 07:14:42;;;;;;;37.43;22.17;;;1.70;99.90;;;;;;5077970;28;20461;-63
2023/01/23 07:17:09;;;;;;;37.33;23.50;;;1.70;99.90;;;;;;5082258;28;20412;-64
2023/01/23 07:19:35;;;;;;;39.53;23.00;;;1.80;99.90;;;;;;5080788;28;20833;-63
2023/01/23 07:22:03;;;;;;;40.42;23.30;;;1.90;99.90;;;;;;5083015;28;20413;-63
2023/01/23 07:24:31;;;;;;;39.53;23.38;;;1.80;99.90;;;;;;5083655;28;20509;-64
2023/01/23 07:26:58;;;;;;;37.55;22.38;;;1.70;99.90;;;;;;5077284;28;20434;-64
2023/01/23 07:29:26;;;;;;;39.88;22.85;;;1.80;99.90;;;;;;5082612;28;20465;-64
2023/01/23 07:31:53;;;;;;;38.22;22.55;;;2.00;99.90;;;;;;5085335;28;20410;-64
2023/01/23 07:34:19;;;;;;;37.33;22.60;;;2.00;99.90;;;;;;5082385;28;20409;-64
2023/01/23 07:36:46;;;;;;;39.25;22.92;;;1.90;99.90;;;;;;5083145;28;20819;-64
2023/01/23 07:39:14;;;;;;;35.60;21.83;;;1.80;99.90;;;;;;5081651;28;20416;-64
2023/01/23 07:41:41;;;;;;;39.70;22.52;;;1.90;99.90;;;;;;5081277;28;20473;-64
2023/01/23 07:44:16;;;;;;;38.13;23.35;;;1.80;99.90;;;;;;5083426;28;20428;-64
2023/01/23 07:46:44;;;;;;;33.90;19.17;;;1.80;99.90;;;;;;5082308;28;20497;-64
2023/01/23 07:49:11;;;;;;;32.90;19.83;;;1.80;99.90;;;;;;5077935;28;20411;-64
2023/01/23 07:51:38;;;;;;;35.42;20.92;;;1.80;99.90;;;;;;5081048;28;20862;-64
2023/01/23 07:54:06;;;;;;;36.38;21.55;;;1.80;99.90;;;;;;5082920;28;20410;-63
2023/01/23 07:56:33;;;;;;;36.13;21.13;;;1.80;99.90;;;;;;5081765;28;20457;-63
2023/01/23 07:58:59;;;;;;;36.47;21.27;;;1.80;99.90;;;;;;5080679;28;20786;-64
2023/01/23 08:01:26;;;;;;;37.08;22.33;;;1.80;99.90;;;;;;5082816;28;20463;-64
2023/01/23 08:03:54;;;;;;;36.17;20.33;;;1.80;99.90;;;;;;5082456;28;20459;-63
2023/01/23 08:06:21;;;;;;;32.63;17.67;;;1.70;99.90;;;;;;5080202;28;20419;-64
2023/01/23 08:08:48;;;;;;;34.50;20.35;;;1.70;99.90;;;;;;5081687;28;20419;-64
2023/01/23 08:11:15;;;;;;;35.42;20.88;;;1.70;99.90;;;;;;5083162;28;20952;-64
2023/01/23 08:13:41;;;;;;;35.45;20.42;;;1.80;99.90;;;;;;5081252;28;20416;-63
2023/01/23 08:16:08;;;;;;;33.92;20.33;;;1.80;99.90;;;;;;5080354;28;20960;-63
2023/01/23 08:18:35;;;;;;;34.83;20.38;;;1.90;99.90;;;;;;5080391;28;20438;-64
2023/01/23 08:21:03;;;;;;;33.88;19.25;;;1.90;99.90;;;;;;5081094;28;20418;-64
2023/01/23 08:23:32;;;;;;;32.67;19.50;;;1.90;99.90;;;;;;5082784;28;20454;-64
2023/01/23 08:26:01;;;;;;;30.35;19.00;;;1.90;99.90;;;;;;5080658;28;20911;-64
2023/01/23 08:28:28;;;;;;;33.88;18.92;;;2.00;99.90;;;;;;5080276;28;20415;-63
2023/01/23 08:30:55;;;;;;;33.75;19.85;;;1.90;99.90;;;;;;5081628;28;20410;-64
2023/01/23 08:33:22;;;;;;;33.10;19.63;;;1.90;99.90;;;;;;5081824;28;20413;-64
2023/01/23 08:35:50;;;;;;;32.55;18.65;;;1.90;99.90;;;;;;5076207;28;20811;-63
2023/01/23 08:38:18;;;;;;;32.80;18.85;;;1.90;99.90;;;;;;5080565;28;20461;-63
2023/01/23 08:40:45;;;;;;;28.98;17.98;;;2.00;99.90;;;;;;5082481;28;20497;-64
2023/01/23 08:43:12;;;;;;;27.40;16.42;;;2.10;99.90;;;;;;5078492;28;20474;-63
2023/01/23 08:45:39;;;;;;;31.25;18.38;;;2.00;99.90;;;;;;5083052;28;21119;-63
2023/01/23 08:48:06;;;;;;;28.30;18.17;;;1.90;99.90;;;;;;5076191;28;20968;-63
2023/01/23 08:50:33;;;;;;;28.13;18.05;;;2.00;99.90;;;;;;5078420;28;20415;-63
2023/01/23 08:53:00;;;;;;;27.77;17.45;;;2.00;99.90;;;;;;5082021;28;20414;-63
2023/01/23 08:55:28;;;;;;;29.35;17.48;;;2.00;99.90;;;;;;5080421;28;20407;-64
2023/01/23 08:57:55;;;;;;;29.53;18.07;;;2.00;99.90;;;;;;5079331;28;20407;-64
2023/01/23 09:00:22;;;;;;;28.05;17.40;;;2.10;99.90;;;;;;5081567;28;20423;-63
2023/01/23 09:02:49;;;;;;;27.08;16.92;;;2.00;99.90;;;;;;5081417;28;20819;-64
2023/01/23 09:05:16;;;;;;;26.70;17.15;;;2.00;99.90;;;;;;5075059;28;20430;-63
2023/01/23 09:07:44;;;;;;;24.27;14.95;;;2.00;99.90;;;;;;5078105;28;21381;-63
2023/01/23 09:10:12;;;;;;;26.75;17.00;;;2.10;99.90;;;;;;5078823;28;20415;-64
2023/01/23 09:12:41;;;;;;;25.95;16.08;;;2.10;99.90;;;;;;5080648;28;20493;-63
2023/01/23 09:15:09;;;;;;;25.63;15.80;;;2.10;99.90;;;;;;5080649;28;20407;-64
2023/01/23 09:17:36;;;;;;;24.73;15.88;;;2.10;99.90;;;;;;5077085;28;20415;-64
2023/01/23 09:20:04;;;;;;;25.15;16.33;;;2.10;99.90;;;;;;5079408;28;20430;-63
2023/01/23 09:22:31;;;;;;;23.93;15.40;;;2.10;99.90;;;;;;5075837;28;20470;-63
2023/01/23 09:24:58;;;;;;;23.90;15.25;;;2.10;99.90;;;;;;5082996;28;20835;-64
2023/01/23 09:27:24;;;;;;;23.93;15.33;;;2.20;99.90;;;;;;5081869;28;20491;-64
2023/01/23 09:29:53;;;;;;;22.83;15.43;;;2.20;99.90;;;;;;5080350;28;20411;-64
2023/01/23 09:32:19;;;;;;;24.92;15.43;;;2.30;99.90;;;;;;5079431;28;20779;-64
2023/01/23 09:34:47;;;;;;;22.52;14.18;;;2.30;99.90;;;;;;5081323;28;20421;-64
2023/01/23 09:37:14;;;;;;;21.45;13.48;;;2.20;99.90;;;;;;5081091;28;20452;-64
2023/01/23 09:39:42;;;;;;;22.58;13.57;;;2.20;99.90;;;;;;5078580;28;20898;-64
2023/01/23 09:42:16;;;;;;;23.35;14.88;;;2.30;99.90;;;;;;5079814;28;20419;-64
2023/01/23 09:44:47;;;;;;;22.98;14.70;;;2.30;99.90;;;;;;5074696;28;20960;-63
2023/01/23 09:47:20;;;;;;;21.33;14.73;;;2.40;99.90;;;;;;5079085;28;20419;-64
2023/01/23 09:49:54;;;;;;;22.23;14.98;;;2.40;99.90;;;;;;5078985;28;20457;-64
2023/01/23 09:52:24;;;;;;;21.17;14.05;;;2.40;99.90;;;;;;5083070;28;20458;-64
2023/01/23 09:54:55;;;;;;;22.73;14.53;;;2.40;99.90;;;;;;5083847;28;20418;-64
2023/01/23 09:57:25;;;;;;;22.00;13.50;;;2.40;99.90;;;;;;5085579;28;20847;-63
2023/01/23 09:59:56;;;;;;;18.58;11.30;;;2.40;99.90;;;;;;5084987;28;20455;-64
2023/01/23 10:02:24;;;;;;;22.90;12.93;;;2.30;99.90;;;;;;5078741;28;20477;-64
2023/01/23 10:04:52;;;;;;;22.27;14.65;;;2.40;99.90;;;;;;5083329;28;20415;-64
2023/01/23 10:07:45;;;;;;;20.55;13.77;;;2.50;99.90;;;;;;5084900;28;20448;-64
2023/01/23 10:10:43;;;;;;;18.73;11.82;;;2.60;99.90;;;;;;5081063;28;20464;-64
2023/01/23 10:13:16;;;;;;;21.23;14.00;;;2.70;99.90;;;;;;5070778;28;20475;-63
2023/01/23 10:16:07;;;;;;;20.65;13.95;;;2.60;99.90;;;;;;5083923;28;20440;-64
2023/01/23 10:18:42;;;;;;;19.88;13.25;;;2.60;99.90;;;;;;5084318;28;20421;-63
2023/01/23 10:21:20;;;;;;;21.20;13.93;;;2.60;99.90;;;;;;5084273;28;20412;-63
2023/01/23 10:24:00;;;;;;;21.73;14.00;;;2.50;99.90;;;;;;5080547;28;20821;-64
2023/01/23 10:26:31;;;;;;;20.90;14.13;;;2.50;99.90;;;;;;5079381;28;20944;-64
2023/01/23 10:29:02;;;;;;;20.58;13.80;;;2.50;99.90;;;;;;5082509;28;20425;-63
2023/01/23 10:31:37;;;;;;;20.10;13.32;;;2.50;99.90;;;;;;5083828;28;20417;-63
2023/01/23 10:34:13;;;;;;;20.98;13.50;;;2.60;99.90;;;;;;5085092;28;20405;-64
2023/01/23 10:36:47;;;;;;;19.80;13.52;;;2.60;99.90;;;;;;5084327;28;20413;-63
2023/01/23 10:39:17;;;;;;;19.73;13.07;;;2.60;99.90;;;;;;5084169;28;20415;-64
2023/01/23 10:41:45;;;;;;;17.30;11.85;;;2.60;99.90;;;;;;5082490;28;20481;-64
2023/01/23 10:44:16;;;;;;;15.30;10.27;;;2.70;99.90;;;;;;5083550;28;20410;-64
2023/01/23 10:46:47;;;;;;;16.52;11.40;;;2.70;99.90;;;;;;5081215;28;20426;-64
2023/01/23 10:49:28;;;;;;;15.00;10.63;;;2.80;99.90;;;;;;5082960;28;20411;-63
2023/01/23 10:51:55;;;;;;;15.00;11.13;;;2.90;99.90;;;;;;5080799;28;20503;-64
2023/01/23 10:54:24;;;;;;;13.38;9.90;;;2.80;91.90;;;;;;5081983;28;20415;-64
2023/01/23 10:56:57;;;;;;;15.18;10.20;;;2.90;90.20;;;;;;5082816;28;20414;-63
2023/01/23 10:59:29;;;;;;;14.38;10.60;;;2.90;99.90;;;;;;5084047;28;20409;-64
2023/01/23 11:01:59;;;;;;;16.13;10.73;;;2.90;97.80;;;;;;5081784;28;21026;-64
2023/01/23 11:04:29;;;;;;;14.00;10.23;;;2.80;98.90;;;;;;5082106;28;20490;-64
2023/01/23 11:07:05;;;;;;;14.68;10.05;;;2.90;97.40;;;;;;5082192;28;20425;-64
2023/01/23 11:09:33;;;;;;;13.40;9.63;;;3.00;99.90;;;;;;5079508;28;20427;-64
2023/01/23 11:12:05;;;;;;;12.88;9.63;;;3.00;90.50;;;;;;5081443;28;21001;-63
2023/01/23 11:14:33;;;;;;;13.68;9.95;;;2.80;72.70;;;;;;5080490;28;20419;-63
2023/01/23 11:17:03;;;;;;;14.07;11.20;;;2.80;97.00;;;;;;5081155;28;20410;-63
2023/01/23 11:19:32;;;;;;;15.50;10.88;;;2.80;99.90;;;;;;5082529;28;20403;-63
2023/01/23 11:22:00;;;;;;;15.52;11.50;;;2.90;99.90;;;;;;5081405;28;20494;-64
2023/01/23 11:24:32;;;;;;;15.20;11.05;;;2.90;99.90;;;;;;5083231;28;20417;-64
2023/01/23 11:27:00;;;;;;;16.38;11.25;;;3.00;96.30;;;;;;5083343;28;20478;-64
2023/01/23 11:29:29;;;;;;;15.88;10.93;;;3.00;99.00;;;;;;5082142;28;20411;-63
2023/01/23 11:32:00;;;;;;;15.23;11.02;;;3.10;96.90;;;;;;5081109;28;20416;-64
2023/01/23 11:34:34;;;;;;;15.13;11.10;;;3.10;97.50;;;;;;5079294;28;20457;-63
2023/01/23 11:37:08;;;;;;;16.48;11.38;;;3.30;96.70;;;;;;5080605;28;20511;-64
2023/01/23 11:39:44;;;;;;;15.68;11.40;;;3.50;94.80;;;;;;5081427;28;20943;-64
2023/01/23 11:42:13;;;;;;;16.05;11.00;;;3.60;75.50;;;;;;5079537;28;20442;-64
2023/01/23 11:44:41;;;;;;;14.10;10.73;;;3.60;58.20;;;;;;5079223;28;20408;-63
2023/01/23 11:47:28;;;;;;;15.07;11.57;;;3.50;74.70;;;;;;5082189;28;20422;-63
2023/01/23 11:50:14;;;;;;;15.93;11.38;;;3.30;57.80;;;;;;5079563;28;20414;-64
2023/01/23 11:52:49;;;;;;;16.48;11.00;;;3.30;93.80;;;;;;5080512;28;20406;-63
2023/01/23 11:55:52;;;;;;;15.98;11.52;;;3.20;85.70;;;;;;5076004;28;20493;-64
2023/01/23 11:58:50;;;;;;;16.77;12.07;;;3.20;85.30;;;;;;5080310;28;20412;-63
2023/01/23 12:01:23;;;;;;;17.52;12.15;;;3.00;91.90;;;;;;5076837;28;20415;-63
2023/01/23 12:04:12;;;;;;;18.08;12.55;;;3.00;97.80;;;;;;5078682;28;20411;-64
2023/01/23 12:06:58;;;;;;;17.55;12.77;;;3.20;99.90;;;;;;5078763;28;20451;-63
2023/01/23 12:09:32;;;;;;;19.13;13.07;;;3.10;96.10;;;;;;5079506;28;20547;-64
2023/01/23 12:12:09;;;;;;;18.50;13.67;;;3.00;99.90;;;;;;5076732;28;20418;-64
2023/01/23 12:14:45;;;;;;;19.33;13.57;;;3.00;99.90;;;;;;5079837;28;20415;-64
2023/01/23 12:17:25;;;;;;;18.50;12.98;;;3.10;99.90;;;;;;5080497;28;20411;-64
2023/01/23 12:20:25;;;;;;;17.00;12.47;;;3.20;99.90;;;;;;5080316;28;20436;-64
2023/01/23 12:23:04;;;;;;;18.47;13.70;;;3.10;99.90;;;;;;5076798;28;20415;-64
2023/01/23 12:25:34;;;;;;;18.02;13.30;;;3.20;99.90;;;;;;5075431;28;20442;-63
2023/01/23 12:28:11;;;;;;;17.27;12.45;;;3.30;99.90;;;;;;5080931;28;20431;-63
2023/01/23 12:31:03;;;;;;;17.67;13.30;;;3.50;99.90;;;;;;5076766;28;20465;-62
2023/01/23 12:33:56;;;;;;;17.92;14.05;;;3.30;96.50;;;;;;5077407;28;20420;-63
2023/01/23 12:36:42;;;;;;;19.50;14.50;;;3.40;99.90;;;;;;5080305;28;20404;-63
2023/01/23 12:39:24;;;;;;;20.48;14.50;;;3.40;97.80;;;;;;5079855;28;20494;-63
2023/01/23 12:41:57;;;;;;;23.85;14.85;;;3.30;99.90;;;;;;5079482;28;20875;-63
2023/01/23 12:44:29;;;;;;;21.25;13.60;;;3.30;99.90;;;;;;5080098;28;20419;-63
2023/01/23 12:47:00;;;;;;;23.63;15.55;;;3.10;99.30;;;;;;5077394;28;20422;-63
2023/01/23 12:49:33;;;;;;;17.23;12.30;;;3.20;99.90;;;;;;5082522;28;20888;-63
2023/01/23 12:52:03;;;;;;;18.70;12.55;;;3.20;99.90;;;;;;5080686;28;20411;-63
2023/01/23 12:54:39;;;;;;;19.05;13.75;;;3.10;99.90;;;;;;5075087;28;20415;-62
2023/01/23 12:57:09;;;;;;;18.90;13.27;;;3.00;99.90;;;;;;5074645;28;20423;-64
2023/01/23 12:59:49;;;;;;;18.20;12.88;;;3.00;99.90;;;;;;5063572;28;20411;-62